createdAt,value
2022-10-07T00:00:05.588Z,3.60
2022-10-07T00:02:33.040Z,3.60
2022-10-07T00:05:00.483Z,3.30
2022-10-07T00:07:27.864Z,3.35
2022-10-07T00:09:55.284Z,4.10
2022-10-07T00:12:24.100Z,4.00
2022-10-07T00:14:51.526Z,3.30
2022-10-07T00:17:19.072Z,3.60
2022-10-07T00:19:46.468Z,3.38
2022-10-07T00:22:14.497Z,3.15
2022-10-07T00:24:41.913Z,3.33
2022-10-07T00:27:09.266Z,3.08
2022-10-07T00:29:37.971Z,3.50
2022-10-07T00:32:05.372Z,3.00
2022-10-07T00:34:32.794Z,3.50
2022-10-07T00:37:00.151Z,3.10
2022-10-07T00:39:27.540Z,3.65
2022-10-07T00:41:54.907Z,3.22
2022-10-07T00:44:43.814Z,3.28
2022-10-07T00:47:13.374Z,3.70
2022-10-07T00:49:44.873Z,3.42
2022-10-07T00:52:12.586Z,3.10
2022-10-07T00:54:40.283Z,3.05
2022-10-07T00:57:08.041Z,3.22
2022-10-07T00:59:35.427Z,3.47
2022-10-07T01:02:04.318Z,3.28
2022-10-07T01:04:31.666Z,2.78
2022-10-07T01:06:59.039Z,4.55
2022-10-07T01:09:27.200Z,2.85
2022-10-07T01:11:58.024Z,3.05
2022-10-07T01:14:30.907Z,3.00
2022-10-07T01:17:02.036Z,2.90
2022-10-07T01:19:49.484Z,3.25
2022-10-07T01:22:22.877Z,2.85
2022-10-07T01:24:55.067Z,2.70
2022-10-07T01:27:25.177Z,2.97
2022-10-07T01:29:56.039Z,3.20
2022-10-07T01:32:26.138Z,3.20
2022-10-07T01:34:54.886Z,3.10
2022-10-07T01:37:23.167Z,3.33
2022-10-07T01:39:52.282Z,3.20
2022-10-07T01:42:20.692Z,2.92
2022-10-07T01:44:53.575Z,3.03
2022-10-07T01:47:20.963Z,3.92
2022-10-07T01:49:48.328Z,3.20
2022-10-07T01:52:23.990Z,3.28
2022-10-07T01:55:00.299Z,3.42
2022-10-07T01:57:32.338Z,3.22
2022-10-07T02:00:09.965Z,3.88
2022-10-07T02:02:47.178Z,3.05
2022-10-07T02:05:15.996Z,2.75
2022-10-07T02:07:51.286Z,3.60
2022-10-07T02:10:22.351Z,3.03
2022-10-07T02:12:53.171Z,2.90
2022-10-07T02:15:24.593Z,2.92
2022-10-07T02:17:53.990Z,3.38
2022-10-07T02:20:22.101Z,3.13
2022-10-07T02:22:50.622Z,3.22
2022-10-07T02:25:18.586Z,3.30
2022-10-07T02:27:47.174Z,3.08
2022-10-07T02:30:15.968Z,3.03
2022-10-07T02:32:48.207Z,2.75
2022-10-07T02:35:17.352Z,3.05
2022-10-07T02:37:47.035Z,3.00
2022-10-07T02:40:14.809Z,2.90
2022-10-07T02:42:47.827Z,2.88
2022-10-07T02:45:18.090Z,2.95
2022-10-07T02:47:49.733Z,2.92
2022-10-07T02:50:20.899Z,2.97
2022-10-07T02:52:49.050Z,3.30
2022-10-07T02:55:18.466Z,3.17
2022-10-07T02:57:47.492Z,2.90
2022-10-07T03:00:15.846Z,2.80
2022-10-07T03:02:45.424Z,3.30
2022-10-07T03:05:18.026Z,3.05
2022-10-07T03:07:46.694Z,2.83
2022-10-07T03:10:14.787Z,2.70
2022-10-07T03:12:42.449Z,3.33
2022-10-07T03:15:11.536Z,3.35
2022-10-07T03:17:38.952Z,3.58
2022-10-07T03:20:06.832Z,3.40
2022-10-07T03:22:35.579Z,3.03
2022-10-07T03:25:02.925Z,3.20
2022-10-07T03:27:30.331Z,3.03
2022-10-07T03:29:58.522Z,3.15
2022-10-07T03:32:27.096Z,3.50
2022-10-07T03:34:54.503Z,2.90
2022-10-07T03:37:21.835Z,3.38
2022-10-07T03:39:50.666Z,3.22
2022-10-07T03:42:18.005Z,3.15
2022-10-07T03:44:45.615Z,3.00
2022-10-07T03:47:13.045Z,2.75
2022-10-07T03:49:41.580Z,3.00
2022-10-07T03:52:08.901Z,2.92
2022-10-07T03:54:36.343Z,2.72
2022-10-07T03:57:25.255Z,3.45
2022-10-07T03:59:53.474Z,3.08
2022-10-07T04:02:22.427Z,3.75
2022-10-07T04:04:51.437Z,3.22
2022-10-07T04:07:18.819Z,3.20
2022-10-07T04:09:46.156Z,3.50
2022-10-07T04:12:14.830Z,3.53
2022-10-07T04:14:42.230Z,3.60
2022-10-07T04:17:09.591Z,3.83
2022-10-07T04:19:37.111Z,3.60
2022-10-07T04:22:08.818Z,3.40
2022-10-07T04:24:36.628Z,4.03
2022-10-07T04:27:04.861Z,3.40
2022-10-07T04:29:38.850Z,3.65
2022-10-07T04:32:07.939Z,3.22
2022-10-07T04:34:35.300Z,3.85
2022-10-07T04:37:02.657Z,3.90
2022-10-07T04:39:56.059Z,3.47
2022-10-07T04:42:31.323Z,3.25
2022-10-07T04:45:00.036Z,3.75
2022-10-07T04:47:27.347Z,4.43
2022-10-07T04:49:55.067Z,3.92
2022-10-07T04:52:22.419Z,4.68
2022-10-07T04:54:49.903Z,4.13
2022-10-07T04:57:17.222Z,3.30
2022-10-07T04:59:44.597Z,4.90
2022-10-07T05:02:13.379Z,3.72
2022-10-07T05:04:40.779Z,4.10
2022-10-07T05:07:08.570Z,4.18
2022-10-07T05:09:35.908Z,3.90
2022-10-07T05:12:03.272Z,4.40
2022-10-07T05:14:32.759Z,3.80
2022-10-07T05:17:00.530Z,4.28
2022-10-07T05:19:29.231Z,4.38
2022-10-07T05:21:56.650Z,4.15
2022-10-07T05:24:23.992Z,3.83
2022-10-07T05:26:51.565Z,4.90
2022-10-07T05:29:19.490Z,4.28
2022-10-07T05:31:48.182Z,4.18
2022-10-07T05:34:16.056Z,4.45
2022-10-07T05:36:44.876Z,4.80
2022-10-07T05:39:12.283Z,5.07
2022-10-07T05:41:45.305Z,4.75
2022-10-07T05:44:13.203Z,4.80
2022-10-07T05:46:40.549Z,4.82
2022-10-07T05:49:07.927Z,4.50
2022-10-07T05:51:35.308Z,4.88
2022-10-07T05:54:04.225Z,4.93
2022-10-07T05:56:32.370Z,4.63
2022-10-07T05:58:59.745Z,4.75
2022-10-07T06:01:28.377Z,4.47
2022-10-07T06:03:57.166Z,4.78
2022-10-07T06:06:25.040Z,5.80
2022-10-07T06:08:52.823Z,4.93
2022-10-07T06:11:39.738Z,4.72
2022-10-07T06:14:07.217Z,5.85
2022-10-07T06:16:34.793Z,5.70
2022-10-07T06:19:02.376Z,6.68
2022-10-07T06:21:29.763Z,5.82
2022-10-07T06:23:57.826Z,5.13
2022-10-07T06:26:26.567Z,5.70
2022-10-07T06:28:53.951Z,5.82
2022-10-07T06:31:22.565Z,5.05
2022-10-07T06:33:50.345Z,5.82
2022-10-07T06:36:18.188Z,5.75
2022-10-07T06:38:46.445Z,5.55
2022-10-07T06:41:14.165Z,5.50
2022-10-07T06:43:43.068Z,5.45
2022-10-07T06:46:13.609Z,5.63
2022-10-07T06:48:42.101Z,5.18
2022-10-07T06:51:10.057Z,5.05
2022-10-07T06:53:37.397Z,4.90
2022-10-07T06:56:05.073Z,5.75
2022-10-07T06:58:32.472Z,5.60
2022-10-07T07:01:01.611Z,5.28
2022-10-07T07:03:29.944Z,4.70
2022-10-07T07:05:57.493Z,4.95
2022-10-07T07:08:27.774Z,5.55
2022-10-07T07:10:55.632Z,4.88
2022-10-07T07:13:23.036Z,5.10
2022-10-07T07:15:55.628Z,4.97
2022-10-07T07:18:24.820Z,5.43
2022-10-07T07:20:52.186Z,5.13
2022-10-07T07:23:19.766Z,5.28
2022-10-07T07:25:47.130Z,5.47
2022-10-07T07:28:15.957Z,5.22
2022-10-07T07:30:43.815Z,4.95
2022-10-07T07:33:11.889Z,5.22
2022-10-07T07:35:41.490Z,5.07
2022-10-07T07:38:08.972Z,5.30
2022-10-07T07:40:37.057Z,5.00
2022-10-07T07:43:04.548Z,5.43
2022-10-07T07:45:32.994Z,5.07
2022-10-07T07:48:00.483Z,5.18
2022-10-07T07:50:27.864Z,4.72
2022-10-07T07:52:57.491Z,5.00
2022-10-07T07:55:25.097Z,4.55
2022-10-07T07:57:52.464Z,4.57
2022-10-07T08:00:20.039Z,4.35
2022-10-07T08:02:47.618Z,4.38
2022-10-07T08:05:16.374Z,3.95
2022-10-07T08:07:45.536Z,4.18
2022-10-07T08:10:14.390Z,4.00
2022-10-07T08:12:41.718Z,4.10
2022-10-07T08:15:10.744Z,4.25
2022-10-07T08:17:38.127Z,4.80
2022-10-07T08:20:05.905Z,4.35
2022-10-07T08:22:33.634Z,4.18
2022-10-07T08:25:01.040Z,5.07
2022-10-07T08:27:29.738Z,3.90
2022-10-07T08:29:57.102Z,3.85
2022-10-07T08:32:24.475Z,3.83
2022-10-07T08:34:51.870Z,3.85
2022-10-07T08:37:20.452Z,4.22
2022-10-07T08:39:48.615Z,3.88
2022-10-07T08:42:24.326Z,4.18
2022-10-07T08:44:53.242Z,3.38
2022-10-07T08:47:27.919Z,3.90
2022-10-07T08:50:00.597Z,3.90
2022-10-07T08:52:33.715Z,4.30
2022-10-07T08:55:01.587Z,4.00
2022-10-07T08:57:35.138Z,4.43
2022-10-07T09:00:07.396Z,3.63
2022-10-07T09:02:39.761Z,3.20
2022-10-07T09:05:10.834Z,3.47
2022-10-07T09:07:41.199Z,3.92
2022-10-07T09:10:17.085Z,3.83
2022-10-07T09:12:47.640Z,3.08
2022-10-07T09:15:19.050Z,3.72
2022-10-07T09:17:51.665Z,3.03
2022-10-07T09:20:20.252Z,3.78
2022-10-07T09:22:51.123Z,3.50
2022-10-07T09:27:45.907Z,3.28
2022-10-07T09:30:13.939Z,3.83
2022-10-07T09:32:43.899Z,3.50
2022-10-07T09:35:13.495Z,3.13
2022-10-07T09:37:55.246Z,3.08
2022-10-07T09:40:23.922Z,3.28
2022-10-07T09:42:51.539Z,2.75
2022-10-07T09:45:20.413Z,2.65
2022-10-07T09:47:52.619Z,3.30
2022-10-07T09:50:34.435Z,2.70
2022-10-07T09:53:02.287Z,2.88
2022-10-07T09:55:38.228Z,2.90
2022-10-07T09:58:06.830Z,2.90
2022-10-07T10:00:42.321Z,2.63
2022-10-07T10:03:11.576Z,2.15
2022-10-07T10:05:40.511Z,2.75
2022-10-07T10:08:09.119Z,3.00
2022-10-07T10:10:37.255Z,1.65
2022-10-07T10:13:05.984Z,1.70
2022-10-07T10:15:41.967Z,1.70
2022-10-07T10:18:28.105Z,2.15
2022-10-07T10:20:55.563Z,1.60
2022-10-07T10:23:28.110Z,1.67
2022-10-07T10:26:17.886Z,1.80
2022-10-07T10:28:47.921Z,1.73
2022-10-07T10:31:20.584Z,1.85
2022-10-07T10:33:51.264Z,1.90
2022-10-07T10:36:20.465Z,1.60
2022-10-07T10:38:50.785Z,1.60
2022-10-07T10:41:24.421Z,1.50
2022-10-07T10:43:57.108Z,1.52
2022-10-07T10:46:30.190Z,1.60
2022-10-07T10:49:06.844Z,1.75
2022-10-07T10:51:43.073Z,1.70
2022-10-07T10:54:18.394Z,1.60
2022-10-07T10:56:49.011Z,2.10
2022-10-07T10:59:22.894Z,1.90
2022-10-07T11:01:55.028Z,1.77
2022-10-07T11:04:29.813Z,1.67
2022-10-07T11:07:00.490Z,1.77
2022-10-07T11:11:58.890Z,1.42
2022-10-07T11:14:26.771Z,2.03
2022-10-07T11:16:56.588Z,1.35
2022-10-07T11:19:29.969Z,1.52
2022-10-07T11:22:00.117Z,1.38
2022-10-07T11:24:29.723Z,1.33
2022-10-07T11:26:59.112Z,1.25
2022-10-07T11:29:32.091Z,1.60
2022-10-07T11:32:03.023Z,1.38
2022-10-07T11:34:35.881Z,1.38
2022-10-07T11:37:09.359Z,1.45
2022-10-07T11:39:37.918Z,1.20
2022-10-07T11:42:08.424Z,1.33
2022-10-07T11:47:05.282Z,1.08
2022-10-07T11:49:35.442Z,1.20
2022-10-07T11:52:04.183Z,1.30
2022-10-07T11:54:40.182Z,1.30
2022-10-07T11:57:07.684Z,1.20
2022-10-07T11:59:42.237Z,1.70
2022-10-07T12:02:28.238Z,1.40
2022-10-07T12:04:55.845Z,1.20
2022-10-07T12:07:36.159Z,1.30
2022-10-07T12:10:18.265Z,1.35
2022-10-07T12:12:50.282Z,1.45
2022-10-07T12:15:25.315Z,1.25
2022-10-07T12:17:56.232Z,1.00
2022-10-07T12:20:44.943Z,1.10
2022-10-07T12:23:31.029Z,0.95
2022-10-07T12:26:00.331Z,1.20
2022-10-07T12:28:28.855Z,1.00
2022-10-07T12:30:57.072Z,1.48
2022-10-07T12:33:29.044Z,0.93
2022-10-07T12:35:57.071Z,1.35
2022-10-07T12:38:26.331Z,1.10
2022-10-07T12:41:20.826Z,1.10
2022-10-07T12:43:56.185Z,0.82
2022-10-07T12:46:24.475Z,1.10
2022-10-07T12:48:55.690Z,0.90
2022-10-07T12:51:25.564Z,1.00
2022-10-07T12:53:54.064Z,1.20
2022-10-07T12:56:22.772Z,1.27
2022-10-07T12:59:17.123Z,0.70
2022-10-07T13:01:54.193Z,0.93
2022-10-07T13:04:29.179Z,1.10
2022-10-07T13:07:08.206Z,1.05
2022-10-07T13:09:53.337Z,1.00
2022-10-07T13:12:33.577Z,1.02
2022-10-07T13:15:07.516Z,0.90
2022-10-07T13:17:39.261Z,1.17
2022-10-07T13:20:13.135Z,1.00
2022-10-07T13:22:45.332Z,1.10
2022-10-07T13:25:12.999Z,1.10
2022-10-07T13:27:41.908Z,0.90
2022-10-07T13:30:32.030Z,1.00
2022-10-07T13:33:12.506Z,1.10
2022-10-07T13:35:40.066Z,1.27
2022-10-07T13:38:07.466Z,0.90
2022-10-07T13:40:35.573Z,1.00
2022-10-07T13:43:06.962Z,1.00
2022-10-07T13:45:40.634Z,1.10
2022-10-07T13:48:08.203Z,1.00
2022-10-07T13:50:35.716Z,1.10
2022-10-07T13:53:03.103Z,0.90
2022-10-07T13:55:31.051Z,1.13
2022-10-07T13:58:00.694Z,0.98
2022-10-07T14:00:28.590Z,0.80
2022-10-07T14:02:57.327Z,1.20
2022-10-07T14:05:28.423Z,1.10
2022-10-07T14:07:56.799Z,1.10
2022-10-07T14:10:25.748Z,1.15
2022-10-07T14:12:56.668Z,0.82
2022-10-07T14:15:25.230Z,1.13
2022-10-07T14:17:55.112Z,0.98
2022-10-07T14:20:26.955Z,1.15
2022-10-07T14:22:55.530Z,0.90
2022-10-07T14:25:27.788Z,1.10
2022-10-07T14:28:10.090Z,1.35
2022-10-07T14:30:56.920Z,1.10
2022-10-07T14:33:58.495Z,1.13
2022-10-07T14:36:27.543Z,1.10
2022-10-07T14:38:58.096Z,0.88
2022-10-07T14:41:27.079Z,1.08
2022-10-07T14:43:55.586Z,1.13
2022-10-07T14:46:23.715Z,1.20
2022-10-07T14:48:51.746Z,0.90
2022-10-07T14:51:20.150Z,1.10
2022-10-07T14:53:50.164Z,1.05
2022-10-07T14:56:21.354Z,1.15
2022-10-07T14:58:48.706Z,1.10
2022-10-07T15:01:16.527Z,0.90
2022-10-07T15:03:43.957Z,1.30
2022-10-07T15:06:11.357Z,1.10
2022-10-07T15:08:38.748Z,0.93
2022-10-07T15:11:07.714Z,1.20
2022-10-07T15:13:35.068Z,1.20
2022-10-07T15:16:03.214Z,0.90
2022-10-07T15:18:30.572Z,1.17
2022-10-07T15:20:58.248Z,1.10
2022-10-07T15:23:26.195Z,1.02
2022-10-07T15:25:53.827Z,0.95
2022-10-07T15:28:22.603Z,1.05
2022-10-07T15:30:50.118Z,0.93
2022-10-07T15:33:17.558Z,1.10
2022-10-07T15:35:44.928Z,1.40
2022-10-07T15:38:12.258Z,1.30
2022-10-07T15:40:51.571Z,1.05
2022-10-07T15:43:18.910Z,1.30
2022-10-07T15:45:51.221Z,1.00
2022-10-07T15:48:19.328Z,1.23
2022-10-07T15:50:48.277Z,0.98
2022-10-07T15:53:16.470Z,1.08
2022-10-07T15:55:49.698Z,1.40
2022-10-07T15:58:17.096Z,1.20
2022-10-07T16:00:44.462Z,1.70
2022-10-07T16:03:13.251Z,3.05
2022-10-07T16:05:40.641Z,3.70
2022-10-07T16:08:08.684Z,7.03
2022-10-07T16:10:37.094Z,4.47
2022-10-07T16:13:04.488Z,9.98
2022-10-07T16:15:31.905Z,8.93
2022-10-07T16:17:59.354Z,9.52
2022-10-07T16:20:28.047Z,7.05
2022-10-07T16:22:55.386Z,4.43
2022-10-07T16:25:22.759Z,7.32
2022-10-07T16:28:07.756Z,9.23
2022-10-07T16:30:44.100Z,5.32
2022-10-07T16:33:11.442Z,4.60
2022-10-07T16:35:40.152Z,3.88
2022-10-07T16:38:07.494Z,4.80
2022-10-07T16:40:34.872Z,3.60
2022-10-07T16:43:02.414Z,4.07
2022-10-07T16:45:29.935Z,4.80
2022-10-07T16:47:57.348Z,4.75
2022-10-07T16:50:24.695Z,4.22
2022-10-07T16:52:53.417Z,5.13
2022-10-07T16:55:20.884Z,4.00
2022-10-07T16:57:48.681Z,3.65
2022-10-07T17:00:16.470Z,3.40
2022-10-07T17:02:43.834Z,3.45
2022-10-07T17:05:11.213Z,3.65
2022-10-07T17:07:38.697Z,3.35
2022-10-07T17:10:08.218Z,3.42
2022-10-07T17:12:37.751Z,2.80
2022-10-07T17:15:05.304Z,2.92
2022-10-07T17:17:33.713Z,3.30
2022-10-07T17:20:01.367Z,2.58
2022-10-07T17:22:28.724Z,3.58
2022-10-07T17:24:56.105Z,4.55
2022-10-07T17:27:24.802Z,4.65
2022-10-07T17:29:52.798Z,4.90
2022-10-07T17:32:20.181Z,5.30
2022-10-07T17:34:47.572Z,4.10
2022-10-07T17:37:14.926Z,3.97
2022-10-07T17:39:42.434Z,3.80
2022-10-07T17:42:09.797Z,4.10
2022-10-07T17:44:38.508Z,3.53
2022-10-07T17:47:05.904Z,3.90
2022-10-07T17:49:33.351Z,3.75
2022-10-07T17:52:00.743Z,3.83
2022-10-07T17:54:28.083Z,4.45
2022-10-07T17:56:55.488Z,4.43
2022-10-07T17:59:22.838Z,4.35
2022-10-07T18:01:51.555Z,4.25
2022-10-07T18:04:24.600Z,3.72
2022-10-07T18:06:52.498Z,4.07
2022-10-07T18:09:22.008Z,4.25
2022-10-07T18:12:06.750Z,4.40
2022-10-07T18:14:54.204Z,3.92
2022-10-07T18:17:24.415Z,3.88
2022-10-07T18:19:51.900Z,4.00
2022-10-07T18:22:19.560Z,5.25
2022-10-07T18:24:46.951Z,4.50
2022-10-07T18:27:14.419Z,4.78
2022-10-07T18:29:41.765Z,4.70
2022-10-07T18:32:09.254Z,3.95
2022-10-07T18:34:38.042Z,4.10
2022-10-07T18:37:05.451Z,3.38
2022-10-07T18:39:32.779Z,3.70
2022-10-07T18:42:00.190Z,3.78
2022-10-07T18:44:27.613Z,3.70
2022-10-07T18:46:55.113Z,4.07
2022-10-07T18:49:22.722Z,3.72
2022-10-07T18:51:51.750Z,4.30
2022-10-07T18:54:19.196Z,4.05
2022-10-07T18:56:47.471Z,4.30
2022-10-07T18:59:14.982Z,4.47
2022-10-07T19:01:45.339Z,4.43
2022-10-07T19:04:15.241Z,4.45
2022-10-07T19:06:43.919Z,4.22
2022-10-07T19:09:14.047Z,4.13
2022-10-07T19:11:41.434Z,3.70
2022-10-07T19:14:07.912Z,3.75
2022-10-07T19:16:36.226Z,4.25
2022-10-07T19:19:04.609Z,3.97
2022-10-07T19:21:32.396Z,3.40
2022-10-07T19:24:01.429Z,2.80
2022-10-07T19:26:30.991Z,3.35
2022-10-07T19:28:58.368Z,3.40
2022-10-07T19:31:26.769Z,3.83
2022-10-07T19:33:56.797Z,3.10
2022-10-07T19:36:25.316Z,3.78
2022-10-07T19:38:53.395Z,3.55
2022-10-07T19:41:21.689Z,3.65
2022-10-07T19:43:50.734Z,3.50
2022-10-07T19:46:19.085Z,3.22
2022-10-07T19:48:46.615Z,3.20
2022-10-07T19:51:15.406Z,3.10
2022-10-07T19:53:47.088Z,3.25
2022-10-07T19:56:16.365Z,3.60
2022-10-07T19:58:48.824Z,3.10
2022-10-07T20:01:18.402Z,3.42
2022-10-07T20:03:45.934Z,3.25
2022-10-07T20:06:14.090Z,3.10
2022-10-07T20:08:42.437Z,2.88
2022-10-07T20:11:10.431Z,2.85
2022-10-07T20:13:39.044Z,3.13
2022-10-07T20:16:07.230Z,2.83
2022-10-07T20:18:36.645Z,4.25
2022-10-07T20:21:05.532Z,3.00
2022-10-07T20:23:33.724Z,3.22
2022-10-07T20:26:05.206Z,2.95
2022-10-07T20:28:32.764Z,3.40
2022-10-07T20:31:02.143Z,4.47
2022-10-07T20:33:29.529Z,4.75
2022-10-07T20:36:01.510Z,5.35
2022-10-07T20:38:28.886Z,4.10
2022-10-07T20:41:15.850Z,4.75
2022-10-07T20:43:43.200Z,3.63
2022-10-07T20:46:10.620Z,4.35
2022-10-07T20:48:41.146Z,5.00
2022-10-07T20:51:12.774Z,4.45
2022-10-07T20:53:40.171Z,4.18
2022-10-07T20:56:08.693Z,4.07
2022-10-07T20:58:37.201Z,4.38
2022-10-07T21:01:06.982Z,3.90
2022-10-07T21:03:34.411Z,3.95
2022-10-07T21:06:03.101Z,3.47
2022-10-07T21:08:32.171Z,4.40
2022-10-07T21:11:00.747Z,5.50
2022-10-07T21:13:28.131Z,4.93
2022-10-07T21:15:56.235Z,5.03
2022-10-07T21:18:23.620Z,4.32
2022-10-07T21:20:56.301Z,3.60
2022-10-07T21:23:24.554Z,3.78
2022-10-07T21:25:53.382Z,4.00
2022-10-07T21:28:20.871Z,3.30
2022-10-07T21:30:55.249Z,3.20
2022-10-07T21:33:22.852Z,3.55
2022-10-07T21:35:50.228Z,3.47
2022-10-07T21:38:17.742Z,3.85
2022-10-07T21:40:45.122Z,3.35
2022-10-07T21:43:13.846Z,3.25
2022-10-07T21:45:41.251Z,3.20
2022-10-07T21:48:08.596Z,3.60
2022-10-07T21:50:36.100Z,2.80
2022-10-07T21:53:03.781Z,3.30
2022-10-07T21:55:31.155Z,3.72
2022-10-07T21:57:58.520Z,3.38
2022-10-07T22:00:27.296Z,3.15
2022-10-07T22:02:56.775Z,3.50
2022-10-07T22:05:24.246Z,3.72
2022-10-07T22:08:09.124Z,3.78
2022-10-07T22:10:36.555Z,3.42
2022-10-07T22:13:03.889Z,3.70
2022-10-07T22:15:36.692Z,3.28
2022-10-07T22:18:04.539Z,3.45
2022-10-07T22:20:31.961Z,3.08
2022-10-07T22:23:00.126Z,3.50
2022-10-07T22:25:27.583Z,3.40
2022-10-07T22:27:54.956Z,3.55
2022-10-07T22:30:22.328Z,3.35
2022-10-07T22:32:51.083Z,3.42
2022-10-07T22:35:33.593Z,3.28
2022-10-07T22:38:00.993Z,3.40
2022-10-07T22:40:28.503Z,2.97
2022-10-07T22:42:55.876Z,3.78
2022-10-07T22:45:23.183Z,3.60
2022-10-07T22:47:51.913Z,3.30
2022-10-07T22:50:19.239Z,3.80
2022-10-07T22:52:47.500Z,3.67
2022-10-07T22:55:16.672Z,4.60
2022-10-07T22:57:44.026Z,3.85
2022-10-07T23:00:12.072Z,3.75
2022-10-07T23:02:39.506Z,3.63
2022-10-07T23:05:09.023Z,3.55
2022-10-07T23:07:36.659Z,3.53
2022-10-07T23:10:04.366Z,3.92
2022-10-07T23:12:32.781Z,3.42
2022-10-07T23:15:00.146Z,3.33
2022-10-07T23:17:27.484Z,3.55
2022-10-07T23:19:55.374Z,3.47
2022-10-07T23:22:24.121Z,4.00
2022-10-07T23:24:52.368Z,3.60
2022-10-07T23:27:20.076Z,3.70
2022-10-07T23:29:47.447Z,4.03
2022-10-07T23:32:14.850Z,3.60
2022-10-07T23:34:42.602Z,3.78
2022-10-07T23:37:09.975Z,4.10
2022-10-07T23:39:38.784Z,3.42
2022-10-07T23:42:06.162Z,3.75
2022-10-07T23:44:34.218Z,3.83
2022-10-07T23:47:01.603Z,3.42
2022-10-07T23:49:28.974Z,3.92
2022-10-07T23:51:56.360Z,3.90
2022-10-07T23:54:23.734Z,3.90
2022-10-07T23:56:52.479Z,3.50
2022-10-07T23:59:19.835Z,3.60
